Time;durP1;ratioP1;P1;durP2;ratioP2;P2;SDS_P1;SDS_P2;PMS_P1;PMS_P2;Temp;Humidity;BMP_temperature;BMP_pressure;BME280_temperature;BME280_humidity;BME280_pressure;Samples;Min_cycle;Max_cycle;Signal;HPM_P1;HPM_P2
2021/01/06 00:00:44;;;;;;;85.72;30.52;;;0.40;99.90;;;;;;4977846;28;20023;-87
2021/01/06 00:03:19;;;;;;;98.63;33.58;;;0.40;99.90;;;;;;4977695;28;20022;-87
2021/01/06 00:05:46;;;;;;;87.13;31.85;;;0.40;99.90;;;;;;4977622;28;20022;-87
2021/01/06 00:08:12;;;;;;;94.03;32.97;;;0.50;99.90;;;;;;4977775;28;20023;-86
2021/01/06 00:10:38;;;;;;;85.53;31.65;;;0.60;99.90;;;;;;4977945;28;20109;-87
2021/01/06 00:13:05;;;;;;;95.82;34.63;;;0.50;99.90;;;;;;4977811;28;20026;-87
2021/01/06 00:15:35;;;;;;;103.05;34.58;;;0.30;99.90;;;;;;4977372;28;20496;-86
2021/01/06 00:18:02;;;;;;;99.18;33.95;;;0.50;99.90;;;;;;4977664;28;20034;-88
2021/01/06 00:20:29;;;;;;;96.18;32.72;;;0.40;99.90;;;;;;4977612;28;20027;-87
2021/01/06 00:22:55;;;;;;;97.85;33.10;;;0.50;99.90;;;;;;4977842;28;20029;-88
2021/01/06 00:25:30;;;;;;;104.05;32.70;;;0.60;99.90;;;;;;4976857;28;20022;-87
2021/01/06 00:27:56;;;;;;;106.15;33.03;;;0.70;99.90;;;;;;4977653;28;20049;-87
2021/01/06 00:30:35;;;;;;;115.15;36.72;;;0.70;99.90;;;;;;4977209;28;20080;-87
2021/01/06 00:33:06;;;;;;;105.07;34.10;;;0.50;99.90;;;;;;4977286;28;20022;-87
2021/01/06 00:35:32;;;;;;;99.00;36.40;;;0.50;99.90;;;;;;4976953;28;20026;-88
2021/01/06 00:37:58;;;;;;;114.82;36.83;;;0.40;99.90;;;;;;4977289;28;20423;-86
2021/01/06 00:40:30;;;;;;;105.53;36.97;;;0.40;99.90;;;;;;4977245;28;20027;-87
2021/01/06 00:43:07;;;;;;;113.38;36.70;;;0.40;99.90;;;;;;4977286;28;20018;-87
2021/01/06 00:45:34;;;;;;;103.75;36.30;;;0.50;99.90;;;;;;4976892;28;20083;-87
2021/01/06 00:48:00;;;;;;;109.45;38.45;;;0.40;99.90;;;;;;4977265;28;20034;-87
2021/01/06 00:50:28;;;;;;;103.35;34.08;;;0.40;99.90;;;;;;4977029;28;20553;-87
2021/01/06 00:53:02;;;;;;;109.63;36.13;;;0.50;99.90;;;;;;4977076;28;20027;-87
2021/01/06 00:55:28;;;;;;;102.13;35.75;;;0.50;99.90;;;;;;4976614;28;20022;-87
2021/01/06 00:58:13;;;;;;;98.10;34.30;;;0.50;99.90;;;;;;4976916;28;20052;-86
2021/01/06 01:00:39;;;;;;;104.97;35.42;;;0.50;99.90;;;;;;4976916;28;20065;-86
2021/01/06 01:03:06;;;;;;;105.75;36.00;;;0.50;99.90;;;;;;4976918;28;20027;-88
2021/01/06 01:05:33;;;;;;;112.65;39.13;;;0.60;99.90;;;;;;4976642;28;20035;-87
2021/01/06 01:08:00;;;;;;;100.45;35.97;;;0.60;99.90;;;;;;4976850;28;20022;-87
2021/01/06 01:10:41;;;;;;;105.70;35.47;;;0.60;99.90;;;;;;4976627;28;20022;-87
2021/01/06 01:13:20;;;;;;;103.03;34.45;;;0.50;99.90;;;;;;4977100;28;20034;-87
2021/01/06 01:15:47;;;;;;;101.97;37.15;;;0.40;99.90;;;;;;4976426;28;20026;-86
2021/01/06 01:18:17;;;;;;;97.15;33.25;;;0.30;99.90;;;;;;4977141;28;20472;-87
2021/01/06 01:20:45;;;;;;;98.55;38.22;;;0.30;99.90;;;;;;4976753;28;20117;-87
2021/01/06 01:23:13;;;;;;;98.18;33.55;;;0.20;99.90;;;;;;4976945;28;20138;-87
2021/01/06 01:25:38;;;;;;;97.57;34.72;;;0.00;99.90;;;;;;4976168;28;20042;-86
2021/01/06 01:28:04;;;;;;;106.90;33.30;;;-0.10;99.90;;;;;;4976501;28;20030;-87
2021/01/06 01:30:30;;;;;;;98.32;36.83;;;-0.20;99.90;;;;;;4976446;28;20503;-86
2021/01/06 01:32:56;;;;;;;96.28;34.40;;;-0.40;99.90;;;;;;4992743;28;20231;-87
2021/01/06 01:35:25;;;;;;;99.00;35.17;;;-0.50;99.90;;;;;;4992201;28;20032;-87
2021/01/06 01:37:52;;;;;;;103.38;35.30;;;-0.50;99.90;;;;;;4976128;28;20547;-87
2021/01/06 01:40:25;;;;;;;101.80;36.97;;;-0.50;99.90;;;;;;4975992;28;20053;-87
2021/01/06 01:42:56;;;;;;;94.10;36.40;;;-0.70;99.90;;;;;;4975956;28;20145;-86
2021/01/06 01:45:30;;;;;;;93.38;34.58;;;-0.60;99.90;;;;;;4975668;28;20054;-87
2021/01/06 01:53:09;;;;;;;86.13;35.60;;;-0.80;99.90;;;;;;5028887;28;20452;-73
2021/01/06 01:55:37;;;;;;;80.60;33.65;;;-0.90;99.90;;;;;;5014165;28;20120;-73
2021/01/06 01:58:18;;;;;;;96.07;33.67;;;-1.00;99.90;;;;;;5030465;28;20018;-74
2021/01/06 02:00:44;;;;;;;95.82;34.03;;;-0.90;99.90;;;;;;5031934;28;20024;-74
2021/01/06 02:03:21;;;;;;;91.25;35.50;;;-0.80;99.90;;;;;;5031640;28;20228;-74
2021/01/06 02:05:52;;;;;;;84.32;31.83;;;-0.70;99.90;;;;;;5030621;28;20076;-74
2021/01/06 02:08:50;;;;;;;81.40;32.53;;;-0.90;99.90;;;;;;5031687;28;20492;-73
2021/01/06 02:11:32;;;;;;;94.38;34.58;;;-0.90;99.90;;;;;;5029251;28;20033;-73
2021/01/06 02:14:05;;;;;;;92.55;35.30;;;-0.70;99.90;;;;;;5030075;28;20060;-74
2021/01/06 02:16:59;;;;;;;86.78;35.42;;;-0.50;99.90;;;;;;5013936;28;20071;-73
2021/01/06 02:19:33;;;;;;;85.63;32.38;;;-0.40;99.90;;;;;;5029625;28;20029;-73
2021/01/06 02:22:00;;;;;;;93.43;35.70;;;-0.50;99.90;;;;;;5031637;28;20108;-73
2021/01/06 02:24:26;;;;;;;86.15;33.70;;;-0.50;99.90;;;;;;5030028;28;20040;-73
2021/01/06 02:26:52;;;;;;;88.13;34.47;;;-0.60;99.90;;;;;;5031492;28;20021;-74
2021/01/06 02:29:18;;;;;;;85.07;34.05;;;-0.70;99.90;;;;;;5013461;28;20063;-73
2021/01/06 02:31:44;;;;;;;90.20;34.67;;;-0.80;99.90;;;;;;5030103;28;20029;-74
2021/01/06 02:34:11;;;;;;;94.65;35.13;;;-0.70;99.90;;;;;;5029739;28;20083;-73
2021/01/06 02:36:36;;;;;;;83.05;32.17;;;-0.80;99.90;;;;;;5030213;28;20025;-74
2021/01/06 02:39:06;;;;;;;79.50;32.72;;;-0.90;99.90;;;;;;5030952;28;20040;-74
2021/01/06 02:41:32;;;;;;;99.72;33.75;;;-0.90;99.90;;;;;;5029993;28;20025;-73
2021/01/06 02:43:58;;;;;;;88.00;33.88;;;-1.10;99.90;;;;;;5030969;28;20031;-74
2021/01/06 02:46:24;;;;;;;92.18;32.97;;;-1.00;99.90;;;;;;5031436;28;20060;-74
2021/01/06 02:48:50;;;;;;;97.70;32.72;;;-1.00;99.90;;;;;;5031224;28;20033;-74
2021/01/06 02:51:21;;;;;;;90.70;34.28;;;-1.00;99.90;;;;;;5029560;28;20045;-74
2021/01/06 02:54:01;;;;;;;81.13;31.85;;;-0.90;99.90;;;;;;5029744;28;20026;-73
2021/01/06 02:56:27;;;;;;;82.35;33.42;;;-0.90;99.90;;;;;;5030905;28;20032;-74
2021/01/06 02:58:54;;;;;;;83.50;33.67;;;-1.00;99.90;;;;;;5013238;28;20025;-74
2021/01/06 03:01:23;;;;;;;85.47;31.80;;;-1.00;99.90;;;;;;5031043;28;20060;-74
2021/01/06 03:03:55;;;;;;;90.28;32.95;;;-0.90;99.90;;;;;;5029652;28;20392;-74
2021/01/06 03:06:50;;;;;;;68.43;28.52;;;-0.90;99.90;;;;;;5029746;28;20570;-73
2021/01/06 03:09:35;;;;;;;99.38;34.05;;;-0.80;99.90;;;;;;5029824;28;20030;-74
2021/01/06 03:12:06;;;;;;;99.35;34.38;;;-0.90;99.90;;;;;;5029758;28;20037;-74
2021/01/06 03:14:33;;;;;;;;;;;-1.00;99.90;;;;;;5031745;28;20032;-73
2021/01/06 03:17:01;;;;;;;84.18;31.30;;;-0.90;99.90;;;;;;5030028;28;20323;-73
2021/01/06 03:19:28;;;;;;;82.28;32.63;;;-0.70;99.90;;;;;;5031141;28;20056;-74
2021/01/06 03:21:56;;;;;;;90.70;31.65;;;-0.70;99.90;;;;;;5030921;28;20048;-74
2021/01/06 03:24:30;;;;;;;82.80;30.08;;;-0.80;99.90;;;;;;5013175;28;20058;-73
2021/01/06 03:26:59;;;;;;;95.05;34.88;;;-0.90;99.90;;;;;;5030622;28;20021;-74
2021/01/06 03:29:27;;;;;;;85.53;33.30;;;-0.80;99.90;;;;;;5029643;28;20029;-73
2021/01/06 03:31:55;;;;;;;95.07;34.92;;;-0.70;99.90;;;;;;5033228;28;20029;-74
2021/01/06 03:34:24;;;;;;;93.90;33.75;;;-0.60;99.90;;;;;;5034715;28;20060;-73
2021/01/06 03:37:16;;;;;;;78.05;29.88;;;-0.80;99.90;;;;;;5034373;28;20017;-73
2021/01/06 03:39:49;;;;;;;86.05;32.60;;;-0.80;99.90;;;;;;5034629;28;20021;-73
2021/01/06 03:42:16;;;;;;;84.47;32.75;;;-0.80;99.90;;;;;;5033382;28;20540;-73
2021/01/06 03:44:44;;;;;;;86.07;31.88;;;-0.80;99.90;;;;;;5033205;28;20045;-73
2021/01/06 03:47:25;;;;;;;94.03;34.95;;;-0.80;99.90;;;;;;5016608;28;20109;-73
2021/01/06 03:50:03;;;;;;;89.45;33.47;;;-0.80;99.90;;;;;;5034598;28;20025;-73
2021/01/06 03:52:47;;;;;;;93.10;33.40;;;-0.80;99.90;;;;;;5034179;28;20072;-73
2021/01/06 03:55:48;;;;;;;87.35;31.60;;;-0.90;99.90;;;;;;5016788;28;20045;-72
2021/01/06 03:58:59;;;;;;;97.53;34.40;;;-0.90;99.90;;;;;;5016395;28;20488;-73
2021/01/06 04:01:33;;;;;;;83.78;34.00;;;-1.00;99.90;;;;;;5033117;28;20539;-72
2021/01/06 04:04:15;;;;;;;108.00;36.63;;;-1.10;99.90;;;;;;5033239;28;20048;-72
2021/01/06 04:06:45;;;;;;;97.47;35.00;;;-1.30;99.90;;;;;;5034381;28;20036;-72
2021/01/06 04:09:20;;;;;;;99.55;34.58;;;-1.30;99.90;;;;;;5034127;28;20033;-71
2021/01/06 04:12:11;;;;;;;99.07;35.75;;;-1.30;99.90;;;;;;5016504;28;20021;-72
2021/01/06 04:14:38;;;;;;;100.80;33.13;;;-1.30;99.90;;;;;;5032845;28;20026;-72
2021/01/06 04:17:36;;;;;;;106.53;36.42;;;-1.30;99.90;;;;;;5032788;28;20148;-72
2021/01/06 04:20:13;;;;;;;111.18;39.40;;;-1.30;99.90;;;;;;5033944;28;20104;-72
2021/01/06 04:22:46;;;;;;;95.38;35.42;;;-1.40;99.90;;;;;;5032738;28;20028;-72
2021/01/06 04:25:18;;;;;;;97.72;34.33;;;-1.30;99.90;;;;;;5032475;28;20117;-72
2021/01/06 04:27:44;;;;;;;93.65;35.88;;;-1.30;99.90;;;;;;5033962;28;20026;-73
2021/01/06 04:30:23;;;;;;;98.22;35.53;;;-1.30;99.90;;;;;;5033811;28;20032;-72
2021/01/06 04:32:49;;;;;;;106.93;35.83;;;-1.20;99.90;;;;;;5032836;28;20026;-72
2021/01/06 04:35:15;;;;;;;95.47;34.97;;;-1.30;99.90;;;;;;5032435;28;20034;-73
2021/01/06 04:37:41;;;;;;;99.28;34.35;;;-1.30;99.90;;;;;;5032469;28;20104;-72
2021/01/06 04:40:08;;;;;;;110.97;36.28;;;-1.50;99.90;;;;;;5033703;28;20120;-72
2021/01/06 04:42:36;;;;;;;102.30;36.03;;;-1.50;99.90;;;;;;5033114;28;20029;-71
2021/01/06 04:45:11;;;;;;;95.65;34.92;;;-1.50;99.90;;;;;;5033479;28;20033;-72
2021/01/06 04:48:04;;;;;;;98.85;35.55;;;-1.40;99.90;;;;;;5015722;28;20481;-72
2021/01/06 04:50:58;;;;;;;97.40;35.63;;;-1.30;99.90;;;;;;5033459;28;20033;-72
2021/01/06 04:53:44;;;;;;;95.18;34.53;;;-1.40;99.90;;;;;;5032128;28;20120;-72
2021/01/06 04:56:12;;;;;;;101.85;36.58;;;-1.50;99.90;;;;;;5033546;28;20100;-72
2021/01/06 04:59:20;;;;;;;105.18;35.47;;;-1.60;99.90;;;;;;5033388;28;20096;-71
2021/01/06 05:02:31;;;;;;;95.55;34.33;;;-1.60;99.90;;;;;;5033515;28;20523;-76
2021/01/06 05:05:20;;;;;;;94.15;33.30;;;-1.60;99.90;;;;;;5032520;28;20458;-76
2021/01/06 05:08:15;;;;;;;94.15;34.60;;;-1.40;99.90;;;;;;5032332;28;20057;-77
2021/01/06 05:10:51;;;;;;;103.63;35.13;;;-1.30;99.90;;;;;;5033479;28;20025;-76
2021/01/06 05:13:41;;;;;;;104.82;35.85;;;-1.30;99.90;;;;;;5015517;28;20021;-76
2021/01/06 05:16:21;;;;;;;103.90;35.80;;;-1.40;99.90;;;;;;5032913;28;20037;-76
2021/01/06 05:18:48;;;;;;;100.82;36.58;;;-1.50;99.90;;;;;;5033164;28;20117;-76
2021/01/06 05:21:18;;;;;;;100.93;36.03;;;-1.50;99.90;;;;;;5033041;28;20040;-76
2021/01/06 05:23:47;;;;;;;98.22;36.95;;;-1.40;99.90;;;;;;5032969;28;20022;-75
2021/01/06 05:26:13;;;;;;;109.40;37.50;;;-1.50;99.90;;;;;;5015131;28;20381;-75
2021/01/06 05:28:49;;;;;;;99.45;34.63;;;-1.50;99.90;;;;;;5031778;28;20027;-76
2021/01/06 05:31:15;;;;;;;103.70;34.40;;;-1.50;99.90;;;;;;5032914;28;20018;-75
2021/01/06 05:33:45;;;;;;;111.18;39.78;;;-1.60;99.90;;;;;;5031391;28;20029;-76
2021/01/06 05:36:20;;;;;;;107.25;37.97;;;-1.70;99.90;;;;;;5032703;28;20032;-77
2021/01/06 05:38:45;;;;;;;98.97;34.85;;;-1.80;99.90;;;;;;5032646;28;20404;-75
2021/01/06 05:41:11;;;;;;;114.15;36.50;;;-1.80;99.90;;;;;;5032601;28;20025;-75
2021/01/06 05:43:45;;;;;;;107.97;34.95;;;-1.80;99.90;;;;;;5032597;28;20029;-75
2021/01/06 05:46:20;;;;;;;110.50;38.28;;;-1.90;99.90;;;;;;5032562;28;20108;-75
2021/01/06 05:48:52;;;;;;;111.43;35.60;;;-1.90;99.90;;;;;;5032444;28;20025;-76
2021/01/06 05:51:17;;;;;;;104.88;35.60;;;-1.90;99.90;;;;;;5032376;28;20092;-76
2021/01/06 05:53:59;;;;;;;104.53;36.38;;;-1.90;99.90;;;;;;5031537;28;20412;-75
2021/01/06 05:56:50;;;;;;;96.10;32.88;;;-1.90;99.90;;;;;;5014524;28;20053;-75
2021/01/06 05:59:24;;;;;;;100.53;35.53;;;-1.90;99.90;;;;;;5030759;28;20408;-76
2021/01/06 06:02:04;;;;;;;97.97;35.83;;;-1.90;99.90;;;;;;5032440;28;20076;-76
2021/01/06 06:04:42;;;;;;;92.82;33.88;;;-1.90;99.90;;;;;;5030807;28;20030;-75
2021/01/06 06:07:22;;;;;;;109.28;35.05;;;-1.90;99.90;;;;;;5030789;28;20018;-76
2021/01/06 06:10:23;;;;;;;105.05;35.15;;;-1.80;99.90;;;;;;5030822;28;20389;-75
2021/01/06 06:12:55;;;;;;;91.50;34.13;;;-1.80;99.90;;;;;;5027061;28;20116;-75
2021/01/06 06:15:21;;;;;;;;;;;-1.90;99.90;;;;;;5031020;28;20025;-76
2021/01/06 06:18:08;;;;;;;101.95;33.97;;;-1.80;99.90;;;;;;5030889;28;20023;-76
2021/01/06 06:20:56;;;;;;;99.20;35.85;;;-1.80;99.90;;;;;;5030628;28;20032;-76
2021/01/06 06:23:32;;;;;;;89.72;31.70;;;-1.70;99.90;;;;;;5030428;28;20430;-76
2021/01/06 06:26:25;;;;;;;93.95;34.28;;;-1.40;99.90;;;;;;5030454;28;20538;-76
2021/01/06 06:29:01;;;;;;;92.20;33.13;;;-1.40;99.90;;;;;;5030401;28;20539;-76
2021/01/06 06:31:30;;;;;;;101.90;35.83;;;-1.60;99.90;;;;;;5031741;28;20017;-75
2021/01/06 06:34:08;;;;;;;102.43;32.42;;;-1.60;99.90;;;;;;5031401;28;20025;-75
2021/01/06 06:36:39;;;;;;;98.88;35.75;;;-1.70;99.90;;;;;;5031580;28;20025;-75
2021/01/06 06:39:31;;;;;;;91.55;28.88;;;-1.80;99.90;;;;;;5029760;28;20029;-76
2021/01/06 06:42:12;;;;;;;;;;;-1.80;99.90;;;;;;5030509;28;20112;-76
2021/01/06 06:44:49;;;;;;;99.20;34.22;;;-1.80;99.90;;;;;;5029828;28;19912;-76
2021/01/06 06:47:17;;;;;;;90.90;33.13;;;-1.90;99.90;;;;;;5030025;28;20021;-77
2021/01/06 06:50:09;;;;;;;94.57;34.25;;;-1.90;99.90;;;;;;5030882;28;20031;-76
2021/01/06 06:53:13;;;;;;;99.18;37.17;;;-1.90;99.90;;;;;;5031497;28;20057;-75
2021/01/06 06:56:06;;;;;;;97.47;35.05;;;-1.90;99.90;;;;;;5030286;28;20030;-76
2021/01/06 06:58:50;;;;;;;89.28;34.15;;;-1.80;99.90;;;;;;5031545;28;20051;-75
2021/01/06 07:01:38;;;;;;;103.13;36.70;;;-1.80;99.90;;;;;;5029413;28;20112;-76
2021/01/06 07:04:16;;;;;;;92.20;34.90;;;-1.80;99.90;;;;;;5029498;28;20596;-75
2021/01/06 07:06:53;;;;;;;88.05;32.55;;;-1.60;99.90;;;;;;5013200;28;20028;-75
2021/01/06 07:09:26;;;;;;;97.38;34.38;;;-1.60;99.90;;;;;;5030959;28;20026;-75
2021/01/06 07:12:00;;;;;;;97.63;34.15;;;-1.70;99.90;;;;;;5029562;28;20030;-76
2021/01/06 07:14:33;;;;;;;85.82;32.67;;;-1.60;99.90;;;;;;5029587;28;20025;-76
2021/01/06 07:17:32;;;;;;;85.60;33.42;;;-1.50;99.90;;;;;;5030752;28;20104;-76
2021/01/06 07:20:07;;;;;;;94.53;31.27;;;-1.40;99.90;;;;;;5027819;28;20029;-76
2021/01/06 07:22:40;;;;;;;96.03;32.50;;;-1.40;99.90;;;;;;5012866;28;20088;-76
2021/01/06 07:25:18;;;;;;;89.78;33.80;;;-1.40;99.90;;;;;;5029407;28;20032;-77
2021/01/06 07:27:51;;;;;;;92.78;33.55;;;-1.50;99.90;;;;;;5030462;28;20030;-76
2021/01/06 07:30:31;;;;;;;82.90;34.55;;;-1.60;99.90;;;;;;5031265;28;20021;-75
2021/01/06 07:32:59;;;;;;;91.63;33.97;;;-1.70;99.90;;;;;;5029298;28;20072;-75
2021/01/06 07:35:28;;;;;;;82.28;32.42;;;-1.60;99.90;;;;;;5029253;28;20053;-76
2021/01/06 07:38:02;;;;;;;86.38;31.65;;;-1.60;99.90;;;;;;5030413;28;20025;-77
2021/01/06 07:40:40;;;;;;;79.18;31.85;;;-1.60;99.90;;;;;;5035399;28;20507;-76
2021/01/06 07:43:06;;;;;;;84.22;31.75;;;-1.60;99.90;;;;;;5045229;28;20072;-75
2021/01/06 07:45:45;;;;;;;83.60;32.47;;;-1.50;99.90;;;;;;5031503;28;20637;-76
2021/01/06 07:50:55;;;;;;;93.15;32.72;;;-1.40;99.90;;;;;;5018548;28;20050;-79
2021/01/06 07:53:25;;;;;;;83.55;31.80;;;-1.40;99.90;;;;;;5019397;28;20026;-78
2021/01/06 07:56:00;;;;;;;77.03;29.88;;;-1.50;99.90;;;;;;5021567;28;20014;-77
2021/01/06 07:58:42;;;;;;;78.10;29.23;;;-1.50;99.90;;;;;;5038789;28;20500;-78
2021/01/06 08:01:17;;;;;;;;;;;-1.50;99.90;;;;;;5041831;28;20144;-78
2021/01/06 08:03:49;;;;;;;75.70;28.27;;;-1.40;99.90;;;;;;5039295;28;19909;-78
2021/01/06 08:06:20;;;;;;;74.20;28.83;;;-1.30;99.90;;;;;;5039319;28;20018;-78
2021/01/06 08:08:50;;;;;;;69.00;28.48;;;-1.40;99.90;;;;;;5039759;28;20053;-77
2021/01/06 08:11:19;;;;;;;71.18;28.42;;;-1.40;99.90;;;;;;5040955;28;20159;-78
2021/01/06 08:13:48;;;;;;;75.85;30.52;;;-1.50;99.90;;;;;;5033629;28;20025;-77
2021/01/06 08:16:28;;;;;;;71.30;26.42;;;-1.40;99.90;;;;;;5003277;28;20032;-78
2021/01/06 08:19:02;;;;;;;63.50;26.00;;;-1.50;99.90;;;;;;5023009;28;20032;-78
2021/01/06 08:21:45;;;;;;;71.90;28.02;;;-1.40;99.90;;;;;;5022966;28;20081;-78
2021/01/06 08:24:27;;;;;;;84.97;33.08;;;-1.50;99.90;;;;;;5022302;28;20022;-78
2021/01/06 08:26:57;;;;;;;;;;;-1.50;99.90;;;;;;5004943;28;20033;-78
2021/01/06 08:29:27;;;;;;;58.03;24.65;;;-1.50;99.90;;;;;;5004663;28;19913;-78
2021/01/06 08:32:06;;;;;;;61.05;27.08;;;-1.50;99.90;;;;;;5002970;28;20486;-78
2021/01/06 08:34:33;;;;;;;68.00;28.05;;;-1.50;99.90;;;;;;5013244;28;20418;-78
2021/01/06 08:37:10;;;;;;;73.00;28.48;;;-1.70;99.90;;;;;;5007026;28;20022;-79
2021/01/06 08:39:49;;;;;;;70.38;26.23;;;-1.70;99.90;;;;;;5023890;28;20025;-78
2021/01/06 08:42:22;;;;;;;59.13;24.10;;;-1.60;99.90;;;;;;5006977;28;20109;-79
2021/01/06 08:44:59;;;;;;;55.35;23.10;;;-1.50;99.90;;;;;;5025408;28;20013;-78
2021/01/06 08:47:37;;;;;;;67.65;24.33;;;-1.40;99.90;;;;;;5026847;28;20517;-78
2021/01/06 08:50:21;;;;;;;64.75;25.58;;;-1.40;99.90;;;;;;5026913;28;20060;-78
2021/01/06 08:52:54;;;;;;;51.35;20.73;;;-1.40;99.90;;;;;;5004490;28;20037;-77
2021/01/06 08:55:34;;;;;;;56.67;23.35;;;-1.40;99.90;;;;;;4987017;28;20022;-79
2021/01/06 08:58:11;;;;;;;58.47;25.13;;;-1.40;99.90;;;;;;4986229;28;20034;-78
2021/01/06 09:00:44;;;;;;;62.67;25.05;;;-1.30;99.90;;;;;;5001747;28;20026;-78
2021/01/06 09:03:54;;;;;;;57.53;22.98;;;-1.30;99.90;;;;;;4985090;28;20161;-78
2021/01/06 09:06:22;;;;;;;58.88;23.75;;;-1.10;99.90;;;;;;5000411;28;20057;-78
2021/01/06 09:09:03;;;;;;;59.80;24.55;;;-1.30;99.90;;;;;;5003050;28;20536;-78
2021/01/06 09:11:46;;;;;;;58.15;24.48;;;-1.20;99.90;;;;;;5002857;28;20078;-78
2021/01/06 09:14:37;;;;;;;60.50;25.70;;;-1.10;99.90;;;;;;5001308;28;20034;-78
2021/01/06 09:17:16;;;;;;;68.68;24.70;;;-1.00;99.90;;;;;;5002365;28;20022;-78
2021/01/06 09:19:48;;;;;;;60.50;24.33;;;-1.00;99.90;;;;;;5019127;28;20085;-79
2021/01/06 09:22:16;;;;;;;60.05;25.02;;;-1.00;99.90;;;;;;5021632;28;20060;-79
2021/01/06 09:24:45;;;;;;;67.35;23.80;;;-0.90;99.90;;;;;;5020983;28;20087;-79
2021/01/06 09:27:28;;;;;;;55.40;25.33;;;-1.00;99.90;;;;;;5001760;28;20046;-79
2021/01/06 09:29:56;;;;;;;60.28;23.83;;;-1.10;99.90;;;;;;5004638;28;20058;-79
2021/01/06 09:32:33;;;;;;;65.40;23.85;;;-0.90;99.90;;;;;;5001812;28;20026;-79
2021/01/06 09:35:06;;;;;;;59.42;23.85;;;-0.70;99.90;;;;;;5001225;28;20040;-79
2021/01/06 09:37:35;;;;;;;54.00;23.45;;;-0.80;99.90;;;;;;5002780;28;20419;-79
2021/01/06 09:40:11;;;;;;;56.80;22.63;;;-0.70;99.90;;;;;;5003349;28;20030;-79
2021/01/06 09:42:40;;;;;;;63.80;23.25;;;-0.40;99.90;;;;;;5000821;28;20022;-79
2021/01/06 09:45:14;;;;;;;49.92;22.85;;;-0.40;99.90;;;;;;4985635;28;20015;-78
2021/01/06 09:47:42;;;;;;;53.00;22.73;;;-0.30;99.90;;;;;;5009100;28;20032;-79
2021/01/06 09:50:18;;;;;;;52.80;24.13;;;-0.50;99.90;;;;;;5023119;28;20528;-78
2021/01/06 09:52:46;;;;;;;58.25;24.35;;;-0.40;99.90;;;;;;5039802;28;20056;-79
2021/01/06 09:55:16;;;;;;;46.47;19.65;;;-0.30;99.90;;;;;;5041489;28;20108;-79
2021/01/06 09:57:44;;;;;;;46.05;20.55;;;-0.40;99.90;;;;;;5022994;28;20033;-79
2021/01/06 10:00:51;;;;;;;52.47;22.83;;;-0.50;99.90;;;;;;5023902;28;20037;-79
2021/01/06 10:03:17;;;;;;;52.25;21.75;;;-0.50;99.90;;;;;;5025271;28;20045;-78
2021/01/06 10:05:55;;;;;;;50.28;23.17;;;-0.30;99.90;;;;;;5003827;28;20025;-79
2021/01/06 10:08:36;;;;;;;48.58;20.70;;;-0.40;99.90;;;;;;5022419;28;20089;-78
2021/01/06 10:11:17;;;;;;;48.35;21.60;;;-0.30;99.90;;;;;;5020598;28;20026;-79
2021/01/06 10:14:04;;;;;;;48.23;21.63;;;-0.30;99.90;;;;;;5020827;28;20040;-78
2021/01/06 10:16:46;;;;;;;46.10;19.42;;;-0.10;99.90;;;;;;5021066;28;20101;-79
2021/01/06 10:19:37;;;;;;;43.70;21.00;;;0.40;99.90;;;;;;5020739;28;20025;-78
2021/01/06 10:22:30;;;;;;;52.03;22.27;;;0.50;99.90;;;;;;5021264;28;20156;-79
2021/01/06 10:25:27;;;;;;;41.10;18.70;;;0.30;99.90;;;;;;5022995;28;20105;-79
2021/01/06 10:27:58;;;;;;;44.05;18.85;;;0.20;99.90;;;;;;5022381;28;20068;-78
2021/01/06 10:30:26;;;;;;;43.63;18.30;;;0.00;99.90;;;;;;5023485;28;20108;-78
2021/01/06 10:33:12;;;;;;;42.58;20.23;;;0.30;99.90;;;;;;5021534;28;20030;-79
2021/01/06 10:35:40;;;;;;;47.85;20.75;;;0.00;99.90;;;;;;5019269;28;20527;-79
2021/01/06 10:38:28;;;;;;;46.13;20.17;;;-0.10;99.90;;;;;;5023098;28;20386;-78
2021/01/06 10:41:20;;;;;;;46.10;20.77;;;-0.30;99.90;;;;;;5005253;28;20037;-78
2021/01/06 10:44:22;;;;;;;42.65;20.50;;;-0.20;99.90;;;;;;5022318;28;20049;-78
2021/01/06 10:46:51;;;;;;;;;;;-0.30;99.90;;;;;;5024289;28;20045;-78
2021/01/06 10:49:20;;;;;;;48.80;19.88;;;-0.30;99.90;;;;;;5037011;28;19917;-79
2021/01/06 10:51:58;;;;;;;46.20;20.35;;;-0.50;99.90;;;;;;5041558;28;20017;-78
2021/01/06 10:54:32;;;;;;;45.55;20.35;;;-0.50;99.90;;;;;;5041051;28;20082;-78
2021/01/06 10:57:00;;;;;;;58.35;21.13;;;-0.30;99.90;;;;;;5041734;28;20026;-78
2021/01/06 10:59:26;;;;;;;46.95;20.73;;;-0.10;99.90;;;;;;5042624;28;20021;-79
2021/01/06 11:02:16;;;;;;;43.58;20.58;;;-0.10;99.90;;;;;;5041776;28;20148;-79
2021/01/06 11:05:00;;;;;;;49.75;24.67;;;-0.20;99.90;;;;;;5042161;28;20018;-79
2021/01/06 11:07:55;;;;;;;46.40;20.80;;;-0.30;99.90;;;;;;5041715;28;20028;-78
2021/01/06 11:11:03;;;;;;;43.03;20.90;;;-0.20;99.90;;;;;;5040480;28;20030;-79
2021/01/06 11:13:47;;;;;;;41.72;19.45;;;-0.10;99.90;;;;;;5040404;28;20021;-79
2021/01/06 11:16:22;;;;;;;40.25;18.25;;;0.00;99.90;;;;;;5041831;28;20125;-78
2021/01/06 11:18:50;;;;;;;52.03;20.50;;;-0.20;99.90;;;;;;5024675;28;20032;-79
2021/01/06 11:21:18;;;;;;;46.50;21.17;;;-0.10;99.90;;;;;;5041173;28;20404;-78
2021/01/06 11:23:58;;;;;;;41.38;21.35;;;0.00;99.90;;;;;;5044192;28;20026;-79
2021/01/06 11:26:24;;;;;;;43.65;20.50;;;0.00;99.90;;;;;;5023529;28;20109;-78
2021/01/06 11:29:02;;;;;;;44.25;18.85;;;0.00;99.90;;;;;;5021482;28;20021;-79
2021/01/06 11:31:31;;;;;;;43.55;19.63;;;0.00;99.90;;;;;;5022506;28;20037;-79
2021/01/06 11:34:08;;;;;;;49.33;23.25;;;0.10;99.90;;;;;;5020863;28;20533;-79
2021/01/06 11:36:53;;;;;;;45.17;21.50;;;0.10;99.90;;;;;;5020867;28;20030;-78
2021/01/06 11:39:28;;;;;;;46.25;21.95;;;0.30;99.90;;;;;;5001494;28;20022;-77
2021/01/06 11:41:56;;;;;;;51.38;20.70;;;0.60;99.90;;;;;;5000882;28;20086;-77
2021/01/06 11:44:30;;;;;;;51.53;21.40;;;0.60;99.90;;;;;;5017446;28;20014;-78
2021/01/06 11:47:25;;;;;;;41.17;18.50;;;0.50;99.90;;;;;;5016696;28;20025;-77
2021/01/06 11:49:53;;;;;;;43.00;21.05;;;0.40;99.90;;;;;;5001289;28;20041;-77
2021/01/06 11:52:25;;;;;;;41.30;18.98;;;0.50;99.90;;;;;;5021019;28;20030;-77
2021/01/06 11:54:56;;;;;;;46.67;21.08;;;0.50;99.90;;;;;;5022480;28;20036;-78
2021/01/06 11:57:50;;;;;;;49.20;20.77;;;0.40;99.90;;;;;;5022472;28;20209;-78
2021/01/06 12:00:42;;;;;;;43.83;20.58;;;0.60;99.90;;;;;;5022441;28;20026;-77
2021/01/06 12:03:07;;;;;;;41.75;19.88;;;0.30;99.90;;;;;;5021102;28;20026;-77
2021/01/06 12:05:36;;;;;;;42.47;20.85;;;0.30;99.90;;;;;;5022197;28;20101;-77
2021/01/06 12:08:11;;;;;;;45.10;19.42;;;0.40;99.90;;;;;;5021686;28;20170;-78
2021/01/06 12:11:14;;;;;;;43.17;20.20;;;0.50;99.90;;;;;;5020251;28;20366;-78
2021/01/06 12:14:03;;;;;;;42.33;17.83;;;0.50;99.90;;;;;;5028676;28;20037;-77
2021/01/06 12:16:41;;;;;;;40.95;19.42;;;0.40;99.90;;;;;;5022190;28;20030;-77
2021/01/06 12:19:19;;;;;;;38.13;18.42;;;0.70;99.90;;;;;;5023783;28;20025;-77
2021/01/06 12:22:09;;;;;;;39.58;18.30;;;0.70;99.90;;;;;;5024255;28;20033;-77
2021/01/06 12:24:35;;;;;;;43.72;20.90;;;0.80;99.90;;;;;;5024415;28;20022;-78
2021/01/06 12:27:22;;;;;;;40.60;18.80;;;0.50;99.90;;;;;;5022856;28;20101;-76
2021/01/06 12:30:08;;;;;;;40.53;17.92;;;0.60;99.90;;;;;;5005739;28;20120;-77
2021/01/06 12:32:57;;;;;;;42.67;19.38;;;0.60;99.90;;;;;;5021097;28;20030;-77
2021/01/06 12:35:34;;;;;;;38.63;17.23;;;0.50;99.90;;;;;;5024384;28;20065;-77
2021/01/06 12:38:20;;;;;;;33.30;17.95;;;0.70;99.90;;;;;;5020872;28;20029;-78
2021/01/06 12:41:16;;;;;;;41.28;18.05;;;0.90;99.90;;;;;;5014810;28;20026;-77
2021/01/06 12:43:48;;;;;;;39.40;18.90;;;0.80;99.90;;;;;;5020823;28;20022;-77
2021/01/06 12:46:35;;;;;;;45.38;19.20;;;0.80;99.90;;;;;;5021377;28;20149;-77
2021/01/06 12:49:16;;;;;;;39.33;20.13;;;1.00;99.90;;;;;;5023226;28;20033;-77
2021/01/06 12:52:02;;;;;;;31.63;16.13;;;1.10;99.90;;;;;;5020622;28;20093;-77
2021/01/06 12:54:45;;;;;;;39.67;18.65;;;0.80;99.90;;;;;;5018560;28;20049;-77
2021/01/06 12:57:19;;;;;;;36.58;18.90;;;0.70;99.90;;;;;;5019941;28;20355;-77
2021/01/06 12:59:56;;;;;;;40.83;18.23;;;0.60;99.90;;;;;;5017236;28;20116;-79
2021/01/06 13:02:43;;;;;;;48.58;19.05;;;0.50;99.90;;;;;;5014592;28;20030;-77
2021/01/06 13:05:20;;;;;;;36.35;17.38;;;0.40;99.90;;;;;;5020706;28;20018;-77
2021/01/06 13:07:59;;;;;;;39.70;19.08;;;0.70;99.90;;;;;;5019655;28;20516;-77
2021/01/06 13:10:42;;;;;;;44.75;19.38;;;0.60;99.90;;;;;;5003177;28;20022;-77
2021/01/06 13:13:25;;;;;;;40.05;17.48;;;0.60;99.90;;;;;;5020982;28;20037;-77
2021/01/06 13:16:20;;;;;;;38.33;17.25;;;0.60;99.90;;;;;;5020162;28;20022;-76
2021/01/06 13:19:06;;;;;;;39.70;18.02;;;0.70;99.90;;;;;;5020998;28;20033;-77
2021/01/06 13:21:38;;;;;;;41.20;18.80;;;0.70;99.90;;;;;;5020581;28;20029;-78
2021/01/06 13:24:12;;;;;;;43.47;19.45;;;0.50;99.90;;;;;;5020052;28;20084;-77